Back to Top

Language: 

My Weather Underground Personal Weather Station Historical Data with Graphs...

Delerius Weather Station Historical Data
Daily Summary for March 13, 2017 Units:  Metric    English   Both
« Previous Day
Next Day »
Daily Weekly Monthly Yearly Custom
  High: Low: Average:
Temperature: 14.1 °C 3.5 °C 8.9 °C
Dew Point: 8.5 °C 2.3 °C 5.8 °C
Humidity: 93 % 66 % 81 %
Wind Speed: 27.4 km/h 0 km/h 10.5 km/h
Wind Gust: 32.2 km/h - -
Wind:- - West
Pressure: 1028.7 hPa 1021.9 hPa -
Precipitation: 0 mm    
Historical Graphs
 
 
Tabular Data for March 13, 2017
Time Temperature Dew Point Pressure Wind Wind Speed Wind Gust Humidity Rainfall Rate (Hourly) solar Conditions
00:05 6.6 °C 4.6 °C 1021.9 hPa WNW 8 km/h 25.7 km/h 87 % 0 mm 0 W/m2
00:15 6.6 °C 4.6 °C 1021.9 hPa West 8 km/h 9.7 km/h 87 % 0 mm 0 W/m2
00:20 6.5 °C 4.5 °C 1021.9 hPa WNW 8 km/h 9.7 km/h 87 % 0 mm 0 W/m2
00:25 6.4 °C 4.4 °C 1021.9 hPa WNW 9.7 km/h 12.9 km/h 87 % 0 mm 0 W/m2
00:30 6.3 °C 4.3 °C 1022.2 hPa West 11.3 km/h 11.3 km/h 87 % 0 mm 0 W/m2
00:40 6.3 °C 4.4 °C 1022.2 hPa West 11.3 km/h 11.3 km/h 88 % 0 mm 0 W/m2
00:45 6.2 °C 4.2 °C 1022.2 hPa WNW 8 km/h 11.3 km/h 87 % 0 mm 0 W/m2
00:55 6.1 °C 4.3 °C 1022.6 hPa WNW 4.8 km/h 11.3 km/h 88 % 0 mm 0 W/m2
01:00 6.1 °C 4.2 °C 1022.6 hPa WNW 8 km/h 14.5 km/h 88 % 0 mm 0 W/m2
01:05 6.1 °C 4.2 °C 1022.9 hPa WNW 9.7 km/h 14.5 km/h 88 % 0 mm 0 W/m2
01:10 6.1 °C 4.2 °C 1022.9 hPa West 9.7 km/h 9.7 km/h 88 % 0 mm 0 W/m2
01:15 6.1 °C 4.2 °C 1022.9 hPa WNW 8 km/h 11.3 km/h 88 % 0 mm 0 W/m2
01:20 6.1 °C 4.2 °C 1022.9 hPa WNW 9.7 km/h 9.7 km/h 88 % 0 mm 0 W/m2
01:30 6.1 °C 4.1 °C 1023.2 hPa West 11.3 km/h 14.5 km/h 87 % 0 mm 0 W/m2
01:35 6.1 °C 4.1 °C 1022.9 hPa West 12.9 km/h 14.5 km/h 87 % 0 mm 0 W/m2
01:40 6.1 °C 3.9 °C 1022.9 hPa WNW 12.9 km/h 14.5 km/h 86 % 0 mm 0 W/m2
01:45 6.1 °C 3.9 °C 1023.2 hPa WNW 11.3 km/h 14.5 km/h 86 % 0 mm 0 W/m2
01:50 6.1 °C 3.9 °C 1023.2 hPa NW 11.3 km/h 11.3 km/h 86 % 0 mm 0 W/m2
02:00 6 °C 3.7 °C 1023.2 hPa WNW 6.4 km/h 14.5 km/h 85 % 0 mm 0 W/m2
02:05 5.9 °C 3.6 °C 1023.2 hPa NW 6.4 km/h 14.5 km/h 85 % 0 mm 0 W/m2
02:15 5.8 °C 3.5 °C 1023.2 hPa WNW 8 km/h 14.5 km/h 85 % 0 mm 0 W/m2
02:20 5.8 °C 3.4 °C 1023.2 hPa WNW 8 km/h 14.5 km/h 85 % 0 mm 0 W/m2
02:25 5.7 °C 3.4 °C 1023.2 hPa NW 8 km/h 14.5 km/h 85 % 0 mm 0 W/m2
02:35 5.7 °C 3.3 °C 1023.2 hPa NNW 3.2 km/h 14.5 km/h 85 % 0 mm 0 W/m2
02:40 5.6 °C 3.3 °C 1023.2 hPa WNW 1.6 km/h 1.6 km/h 85 % 0 mm 0 W/m2
02:45 5.5 °C 3.2 °C 1023.2 hPa Calm   14.5 km/h 85 % 0 mm 0 W/m2
02:50 5.4 °C 3.1 °C 1023.6 hPa Calm   14.5 km/h 85 % 0 mm 0 W/m2
02:55 5.3 °C 3.1 °C 1023.6 hPa WNW 1.6 km/h 14.5 km/h 86 % 0 mm 0 W/m2
03:00 5.2 °C 3 °C 1023.2 hPa WNW 1.6 km/h 14.5 km/h 86 % 0 mm 0 W/m2
03:10 5.3 °C 3.5 °C 1023.6 hPa NW 8 km/h 14.5 km/h 88 % 0 mm 0 W/m2
03:20 5.6 °C 3.8 °C 1023.6 hPa West 11.3 km/h 14.5 km/h 88 % 0 mm 0 W/m2
03:25 5.7 °C 3.9 °C 1023.6 hPa NW 11.3 km/h 14.5 km/h 88 % 0 mm 0 W/m2
03:30 5.8 °C 3.8 °C 1023.6 hPa NW 9.7 km/h 14.5 km/h 87 % 0 mm 0 W/m2
03:35 5.8 °C 3.8 °C 1023.6 hPa WNW 9.7 km/h 14.5 km/h 87 % 0 mm 0 W/m2
03:40 5.8 °C 3.8 °C 1023.6 hPa WNW 8 km/h 14.5 km/h 87 % 0 mm 0 W/m2
03:45 5.8 °C 3.8 °C 1023.9 hPa West 6.4 km/h 14.5 km/h 87 % 0 mm 0 W/m2
03:50 5.7 °C 3.7 °C 1023.9 hPa WNW 3.2 km/h 3.2 km/h 87 % 0 mm 0 W/m2
03:55 5.7 °C 3.8 °C 1023.9 hPa WNW 4.8 km/h 6.4 km/h 88 % 0 mm 0 W/m2
04:00 5.7 °C 3.8 °C 1023.9 hPa NW 4.8 km/h 4.8 km/h 88 % 0 mm 0 W/m2
04:10 5.6 °C 3.7 °C 1023.9 hPa West 3.2 km/h 14.5 km/h 88 % 0 mm 0 W/m2
04:20 5.4 °C 3.7 °C 1023.9 hPa WNW 1.6 km/h 14.5 km/h 89 % 0 mm 0 W/m2
04:25 5.3 °C 3.6 °C 1023.9 hPa Calm   14.5 km/h 89 % 0 mm 0 W/m2
04:30 5.1 °C 3.4 °C 1023.9 hPa WNW 1.6 km/h 14.5 km/h 89 % 0 mm 0 W/m2
04:35 5 °C 3.3 °C 1023.9 hPa WNW 3.2 km/h 14.5 km/h 89 % 0 mm 0 W/m2
04:40 4.9 °C 3.4 °C 1023.9 hPa WNW 6.4 km/h 14.5 km/h 90 % 0 mm 0 W/m2
04:50 5 °C 3.5 °C 1024.3 hPa West 8 km/h 14.5 km/h 90 % 0 mm 0 W/m2
04:55 5 °C 3.5 °C 1024.3 hPa West 8 km/h 14.5 km/h 90 % 0 mm 0 W/m2
05:00 4.9 °C 3.4 °C 1024.3 hPa West 3.2 km/h 3.2 km/h 90 % 0 mm 0 W/m2
05:05 4.8 °C 3.3 °C 1024.3 hPa West 1.6 km/h 14.5 km/h 90 % 0 mm 0 W/m2
05:10 4.7 °C 3.2 °C 1024.3 hPa West 1.6 km/h 1.6 km/h 90 % 0 mm 0 W/m2
05:15 4.6 °C 3.3 °C 1024.3 hPa Calm   14.5 km/h 91 % 0 mm 0 W/m2
05:25 4.4 °C 3.1 °C 1024.3 hPa Calm   14.5 km/h 91 % 0 mm 0 W/m2
05:30 4.4 °C 3.1 °C 1024.3 hPa Calm   14.5 km/h 91 % 0 mm 0 W/m2
05:35 4.3 °C 2.9 °C 1024.3 hPa Calm   14.5 km/h 91 % 0 mm 0 W/m2
05:40 4.2 °C 2.8 °C 1024.3 hPa Calm   14.5 km/h 91 % 0 mm 0 W/m2
05:50 4.1 °C 2.9 °C 1024.6 hPa Calm   14.5 km/h 92 % 0 mm 0 W/m2
06:00 3.9 °C 2.8 °C 1024.9 hPa Calm   14.5 km/h 92 % 0 mm 0 W/m2
06:05 3.9 °C 2.7 °C 1024.9 hPa Calm   14.5 km/h 92 % 0 mm 0 W/m2
06:10 3.8 °C 2.7 °C 1024.9 hPa Calm   14.5 km/h 92 % 0 mm 0 W/m2
06:15 3.7 °C 2.4 °C 1024.9 hPa Calm   14.5 km/h 91 % 0 mm 0 W/m2
06:20 3.6 °C 2.3 °C 1024.9 hPa Calm   14.5 km/h 91 % 0 mm 0 W/m2
06:25 3.6 °C 2.4 °C 1024.9 hPa Calm   14.5 km/h 92 % 0 mm 0 W/m2
06:30 3.6 °C 2.4 °C 1024.9 hPa Calm   14.5 km/h 92 % 0 mm 7 W/m2
06:35 3.5 °C 2.3 °C 1024.9 hPa Calm   14.5 km/h 92 % 0 mm 9 W/m2
06:40 3.5 °C 2.3 °C 1025.3 hPa Calm   14.5 km/h 92 % 0 mm 14 W/m2
06:50 3.5 °C 2.5 °C 1025.3 hPa WSW 1.6 km/h 1.6 km/h 93 % 0 mm 18 W/m2
06:55 3.6 °C 2.6 °C 1025.3 hPa West 1.6 km/h 3.2 km/h 93 % 0 mm 18 W/m2
07:05 4 °C 2.8 °C 1025.3 hPa West 6.4 km/h 14.5 km/h 92 % 0 mm 30 W/m2
07:10 4.2 °C 3.1 °C 1025.3 hPa WSW 6.4 km/h 14.5 km/h 92 % 0 mm 63 W/m2
07:15 4.5 °C 3.3 °C 1025.3 hPa WSW 4.8 km/h 14.5 km/h 92 % 0 mm 46 W/m2
07:20 4.8 °C 3.6 °C 1025.3 hPa WSW 4.8 km/h 14.5 km/h 92 % 0 mm 65 W/m2
07:25 5 °C 3.7 °C 1025.3 hPa West 4.8 km/h 14.5 km/h 91 % 0 mm 65 W/m2
07:30 5.2 °C 3.8 °C 1025.3 hPa West 3.2 km/h 14.5 km/h 91 % 0 mm 42 W/m2
07:35 5.3 °C 3.8 °C 1025.3 hPa WNW 6.4 km/h 14.5 km/h 90 % 0 mm 44 W/m2
07:40 5.6 °C 3.9 °C 1025.3 hPa West 8 km/h 14.5 km/h 89 % 0 mm 74 W/m2
07:45 5.8 °C 4.1 °C 1025.3 hPa WSW 9.7 km/h 14.5 km/h 89 % 0 mm 102 W/m2
07:50 6 °C 4.2 °C 1025.3 hPa WSW 11.3 km/h 14.5 km/h 88 % 0 mm 53 W/m2
07:55 6.2 °C 4.2 °C 1025.3 hPa West 12.9 km/h 14.5 km/h 87 % 0 mm 109 W/m2
08:05 6.8 °C 4.6 °C 1025.6 hPa WSW 12.9 km/h 16.1 km/h 86 % 0 mm 207 W/m2
08:10 7 °C 4.5 °C 1025.6 hPa WNW 14.5 km/h 14.5 km/h 84 % 0 mm 209 W/m2
08:15 7.3 °C 4.8 °C 1025.6 hPa WSW 12.9 km/h 16.1 km/h 84 % 0 mm 239 W/m2
08:20 7.5 °C 4.6 °C 1025.6 hPa WNW 12.9 km/h 14.5 km/h 82 % 0 mm 255 W/m2
08:25 7.7 °C 4.7 °C 1025.6 hPa WSW 12.9 km/h 16.1 km/h 81 % 0 mm 269 W/m2
08:30 8 °C 4.8 °C 1025.6 hPa West 12.9 km/h 14.5 km/h 80 % 0 mm 225 W/m2
08:35 8.2 °C 4.7 °C 1026 hPa WNW 12.9 km/h 14.5 km/h 79 % 0 mm 287 W/m2
08:45 8.6 °C 4.8 °C 1026 hPa West 14.5 km/h 16.1 km/h 77 % 0 mm 315 W/m2
08:50 8.7 °C 4.7 °C 1026 hPa WSW 16.1 km/h 16.1 km/h 76 % 0 mm 272 W/m2
08:55 8.9 °C 4.9 °C 1026.3 hPa WSW 16.1 km/h 16.1 km/h 76 % 0 mm 339 W/m2
09:00 9.1 °C 5.1 °C 1026.3 hPa WNW 16.1 km/h 16.1 km/h 76 % 0 mm 341 W/m2
09:05 9.3 °C 5.3 °C 1026 hPa West 14.5 km/h 16.1 km/h 76 % 0 mm 373 W/m2
09:10 9.5 °C 5.5 °C 1026.3 hPa West 12.9 km/h 16.1 km/h 76 % 0 mm 367 W/m2
09:20 9.9 °C 5.7 °C 1026.3 hPa West 14.5 km/h 14.5 km/h 75 % 0 mm 394 W/m2
09:25 9.9 °C 5.3 °C 1026.3 hPa WNW 19.3 km/h 19.3 km/h 73 % 0 mm 411 W/m2
09:35 10 °C 5.4 °C 1026.3 hPa WNW 20.9 km/h 22.5 km/h 73 % 0 mm 392 W/m2
09:40 10.1 °C 5.6 °C 1026.3 hPa West 20.9 km/h 20.9 km/h 74 % 0 mm 406 W/m2
09:45 10.2 °C 5.8 °C 1026.3 hPa WNW 16.1 km/h 20.9 km/h 74 % 0 mm 455 W/m2
09:55 10.7 °C 6.2 °C 1026.3 hPa West 12.9 km/h 14.5 km/h 74 % 0 mm 469 W/m2
10:00 10.9 °C 6.2 °C 1026.6 hPa West 11.3 km/h 14.5 km/h 73 % 0 mm 490 W/m2
10:05 11.1 °C 6.4 °C 1026.6 hPa NW 11.3 km/h 14.5 km/h 73 % 0 mm 533 W/m2
10:10 11.3 °C 6.6 °C 1026.6 hPa WSW 12.9 km/h 12.9 km/h 73 % 0 mm 534 W/m2
10:15 11.5 °C 7 °C 1026.6 hPa West 12.9 km/h 14.5 km/h 74 % 0 mm 547 W/m2
10:25 11.8 °C 7.1 °C 1026.6 hPa WNW 16.1 km/h 30.6 km/h 73 % 0 mm 564 W/m2
10:35 11.7 °C 7.2 °C 1027 hPa WNW 17.7 km/h 19.3 km/h 74 % 0 mm 246 W/m2
10:40 11.6 °C 7.3 °C 1027 hPa WNW 16.1 km/h 17.7 km/h 75 % 0 mm 197 W/m2
10:45 11.1 °C 7.1 °C 1027 hPa WNW 22.5 km/h 29 km/h 76 % 0 mm 369 W/m2
10:50 10.9 °C 7.1 °C 1027 hPa West 22.5 km/h 22.5 km/h 77 % 0 mm 197 W/m2
11:00 10.7 °C 7.1 °C 1027 hPa West 19.3 km/h 19.3 km/h 78 % 0 mm 174 W/m2
11:05 10.7 °C 7 °C 1026.6 hPa WNW 19.3 km/h 19.3 km/h 78 % 0 mm 174 W/m2
11:10 10.7 °C 7.2 °C 1026.6 hPa WNW 19.3 km/h 29 km/h 79 % 0 mm 276 W/m2
11:15 10.8 °C 7.3 °C 1026.6 hPa West 20.9 km/h 29 km/h 79 % 0 mm 656 W/m2
11:20 11 °C 7.5 °C 1027 hPa WNW 22.5 km/h 30.6 km/h 79 % 0 mm 652 W/m2
11:25 11.3 °C 7.6 °C 1027 hPa West 27.4 km/h 30.6 km/h 78 % 0 mm 612 W/m2
11:35 11.6 °C 7.4 °C 1027 hPa West 24.1 km/h 27.4 km/h 76 % 0 mm 258 W/m2
11:40 11.4 °C 7.5 °C 1027 hPa WNW 22.5 km/h 22.5 km/h 77 % 0 mm 322 W/m2
11:45 11.2 °C 7.3 °C 1027 hPa West 20.9 km/h 29 km/h 77 % 0 mm 248 W/m2
11:55 11 °C 7.5 °C 1027.3 hPa West 17.7 km/h 19.3 km/h 79 % 0 mm 315 W/m2
12:00 11.1 °C 7.6 °C 1027.3 hPa West 16.1 km/h 16.1 km/h 79 % 0 mm 301 W/m2
12:10 11.3 °C 7.6 °C 1027.3 hPa WNW 16.1 km/h 16.1 km/h 78 % 0 mm 304 W/m2
12:15 11.6 °C 7.8 °C 1027.3 hPa WNW 14.5 km/h 16.1 km/h 78 % 0 mm 385 W/m2
12:20 11.8 °C 8.1 °C 1027.3 hPa West 12.9 km/h 14.5 km/h 78 % 0 mm 408 W/m2
12:25 11.9 °C 8 °C 1027.3 hPa West 14.5 km/h 20.9 km/h 77 % 0 mm 230 W/m2
12:30 11.8 °C 7.9 °C 1027.3 hPa West 16.1 km/h 17.7 km/h 77 % 0 mm 199 W/m2
12:35 11.7 °C 7.8 °C 1027.3 hPa West 17.7 km/h 17.7 km/h 77 % 0 mm 179 W/m2
12:40 11.7 °C 7.8 °C 1027.3 hPa WNW 16.1 km/h 16.1 km/h 77 % 0 mm 260 W/m2
12:45 11.8 °C 7.7 °C 1027.3 hPa WNW 17.7 km/h 17.7 km/h 76 % 0 mm 357 W/m2
12:50 11.8 °C 7.7 °C 1027 hPa West 17.7 km/h 29 km/h 76 % 0 mm 155 W/m2
12:55 11.8 °C 7.9 °C 1027 hPa West 19.3 km/h 29 km/h 77 % 0 mm 666 W/m2
13:05 12.1 °C 8 °C 1027.3 hPa WNW 19.3 km/h 20.9 km/h 76 % 0 mm 151 W/m2
13:15 12.5 °C 8.2 °C 1027.3 hPa West 19.3 km/h 19.3 km/h 75 % 0 mm 645 W/m2
13:20 12.8 °C 8.1 °C 1027 hPa WSW 20.9 km/h 24.1 km/h 73 % 0 mm 596 W/m2
13:25 13.1 °C 8.3 °C 1027.3 hPa WSW 20.9 km/h 24.1 km/h 73 % 0 mm 682 W/m2
13:30 13.4 °C 8.5 °C 1027 hPa West 19.3 km/h 19.3 km/h 72 % 0 mm 536 W/m2
13:35 13.6 °C 8.4 °C 1027.3 hPa WNW 17.7 km/h 19.3 km/h 71 % 0 mm 649 W/m2
13:40 13.4 °C 7.9 °C 1027.3 hPa West 17.7 km/h 22.5 km/h 69 % 0 mm 190 W/m2
13:50 12.7 °C 7.6 °C 1027.3 hPa WNW 22.5 km/h 25.7 km/h 71 % 0 mm 176 W/m2
13:55 12.6 °C 7.4 °C 1027 hPa West 24.1 km/h 25.7 km/h 71 % 0 mm 230 W/m2
14:00 12.3 °C 7.2 °C 1027 hPa West 27.4 km/h 27.4 km/h 71 % 0 mm 190 W/m2
14:05 12.3 °C 7.6 °C 1027 hPa West 25.7 km/h 27.4 km/h 73 % 0 mm 218 W/m2
14:15 12.3 °C 7.4 °C 1027.3 hPa West 24.1 km/h 32.2 km/h 72 % 0 mm 403 W/m2
14:20 12.5 °C 7.4 °C 1027.3 hPa West 20.9 km/h 24.1 km/h 71 % 0 mm 288 W/m2
14:25 12.7 °C 7.6 °C 1027.3 hPa West 20.9 km/h 24.1 km/h 71 % 0 mm 221 W/m2
14:30 12.7 °C 7.4 °C 1027.3 hPa WNW 20.9 km/h 20.9 km/h 70 % 0 mm 401 W/m2
14:35 12.9 °C 7.6 °C 1027.3 hPa WSW 19.3 km/h 22.5 km/h 70 % 0 mm 424 W/m2
14:40 13.1 °C 7.5 °C 1027.3 hPa WNW 20.9 km/h 20.9 km/h 69 % 0 mm 221 W/m2
14:45 13.1 °C 7.6 °C 1027.3 hPa West 22.5 km/h 22.5 km/h 69 % 0 mm 267 W/m2
14:55 13.3 °C 7.8 °C 1027.3 hPa West 20.9 km/h 30.6 km/h 69 % 0 mm 267 W/m2
15:00 13.4 °C 7.8 °C 1027.3 hPa WNW 20.9 km/h 20.9 km/h 69 % 0 mm 294 W/m2
15:05 13.4 °C 7.6 °C 1027.3 hPa West 22.5 km/h 22.5 km/h 68 % 0 mm 272 W/m2
15:10 13.5 °C 7.9 °C 1027.3 hPa WSW 20.9 km/h 20.9 km/h 69 % 0 mm 508 W/m2
15:15 13.7 °C 8.1 °C 1027.3 hPa NW 19.3 km/h 20.9 km/h 69 % 0 mm 408 W/m2
15:20 13.9 °C 8.1 °C 1027.3 hPa NW 17.7 km/h 17.7 km/h 68 % 0 mm 439 W/m2
15:30 14 °C 7.9 °C 1027.3 hPa WNW 17.7 km/h 17.7 km/h 67 % 0 mm 485 W/m2
15:35 14.1 °C 8 °C 1027.3 hPa WNW 16.1 km/h 17.7 km/h 67 % 0 mm 504 W/m2
15:45 14.1 °C 7.8 °C 1027.7 hPa WNW 17.7 km/h 24.1 km/h 66 % 0 mm 464 W/m2
15:50 13.8 °C 7.8 °C 1027.3 hPa West 19.3 km/h 19.3 km/h 67 % 0 mm 230 W/m2
15:55 13.7 °C 7.7 °C 1027.3 hPa WNW 20.9 km/h 25.7 km/h 67 % 0 mm 388 W/m2
16:05 13.4 °C 7.7 °C 1027.7 hPa WNW 22.5 km/h 24.1 km/h 68 % 0 mm 371 W/m2
16:10 13.4 °C 7.6 °C 1027.7 hPa WNW 20.9 km/h 20.9 km/h 68 % 0 mm 330 W/m2
16:15 13.3 °C 7.8 °C 1027.7 hPa West 20.9 km/h 20.9 km/h 69 % 0 mm 274 W/m2
16:20 13.2 °C 7.6 °C 1027.7 hPa West 22.5 km/h 24.1 km/h 69 % 0 mm 183 W/m2
16:25 12.9 °C 7.6 °C 1028 hPa WNW 20.9 km/h 24.1 km/h 70 % 0 mm 149 W/m2
16:35 12.6 °C 7.7 °C 1028 hPa West 19.3 km/h 24.1 km/h 72 % 0 mm 128 W/m2
16:40 12.3 °C 7.6 °C 1028 hPa WNW 16.1 km/h 16.1 km/h 73 % 0 mm 120 W/m2
16:50 12.1 °C 7.6 °C 1028 hPa West 17.7 km/h 17.7 km/h 74 % 0 mm 105 W/m2
16:55 12 °C 7.7 °C 1028 hPa West 14.5 km/h 17.7 km/h 75 % 0 mm 90 W/m2
17:00 11.9 °C 7.6 °C 1028 hPa WNW 12.9 km/h 12.9 km/h 75 % 0 mm 77 W/m2
17:10 11.8 °C 7.5 °C 1028.3 hPa West 9.7 km/h 17.7 km/h 75 % 0 mm 62 W/m2
17:15 11.7 °C 7.6 °C 1028.3 hPa West 9.7 km/h 17.7 km/h 76 % 0 mm 56 W/m2
17:20 11.7 °C 7.6 °C 1028 hPa West 6.4 km/h 14.5 km/h 76 % 0 mm 51 W/m2
17:25 11.7 °C 7.8 °C 1028 hPa West 8 km/h 14.5 km/h 77 % 0 mm 47 W/m2
17:30 11.6 °C 7.7 °C 1028 hPa WNW 9.7 km/h 14.5 km/h 77 % 0 mm 44 W/m2
17:40 11.4 °C 7.3 °C 1028.3 hPa West 11.3 km/h 11.3 km/h 76 % 0 mm 26 W/m2
17:50 11.2 °C 7.2 °C 1028.3 hPa WSW 11.3 km/h 19.3 km/h 76 % 0 mm 14 W/m2
17:55 11.1 °C 7.1 °C 1028.3 hPa WSW 12.9 km/h 19.3 km/h 76 % 0 mm 11 W/m2
18:00 11 °C 6.9 °C 1028.3 hPa WNW 11.3 km/h 11.3 km/h 76 % 0 mm 7 W/m2
18:05 10.9 °C 7 °C 1028.3 hPa West 8 km/h 14.5 km/h 77 % 0 mm 0 W/m2
18:10 10.8 °C 6.9 °C 1028.3 hPa West 3.2 km/h 3.2 km/h 77 % 0 mm 0 W/m2
18:20 10.5 °C 6.6 °C 1028.3 hPa Calm   14.5 km/h 77 % 0 mm 0 W/m2
18:25 10.3 °C 6.6 °C 1028.7 hPa Calm   14.5 km/h 78 % 0 mm 0 W/m2
18:30 10.1 °C 6.4 °C 1028.7 hPa West 1.6 km/h 1.6 km/h 78 % 0 mm 0 W/m2
18:35 10 °C 6.5 °C 1028.7 hPa SW 3.2 km/h 6.4 km/h 79 % 0 mm 0 W/m2
18:40 10.1 °C 6.6 °C 1028.7 hPa SW 3.2 km/h 3.2 km/h 79 % 0 mm 0 W/m2
18:50 10 °C 6.5 °C 1028.7 hPa West 6.4 km/h 14.5 km/h 79 % 0 mm 0 W/m2
19:00 10 °C 6.5 °C 1028.7 hPa West 6.4 km/h 6.4 km/h 79 % 0 mm 0 W/m2
19:05 10 °C 6.5 °C 1028.7 hPa West 4.8 km/h 14.5 km/h 79 % 0 mm 0 W/m2
19:10 9.9 °C 6.6 °C 1028.7 hPa WNW 3.2 km/h 14.5 km/h 80 % 0 mm 0 W/m2
19:15 9.9 °C 6.6 °C 1028.7 hPa WNW 4.8 km/h 14.5 km/h 80 % 0 mm 0 W/m2
19:25 9.9 °C 6.6 °C 1028.7 hPa WNW 4.8 km/h 14.5 km/h 80 % 0 mm 0 W/m2
19:30 9.9 °C 6.6 °C 1028.7 hPa WNW 4.8 km/h 4.8 km/h 80 % 0 mm 0 W/m2
19:35 9.9 °C 6.8 °C 1028.7 hPa West 4.8 km/h 14.5 km/h 81 % 0 mm 0 W/m2
19:40 9.9 °C 6.8 °C 1028.7 hPa West 6.4 km/h 14.5 km/h 81 % 0 mm 0 W/m2
19:45 10 °C 6.7 °C 1028.7 hPa WSW 9.7 km/h 14.5 km/h 80 % 0 mm 0 W/m2
19:50 10.1 °C 6.8 °C 1028.7 hPa West 9.7 km/h 9.7 km/h 80 % 0 mm 0 W/m2
20:00 10.1 °C 6.6 °C 1028.7 hPa WSW 4.8 km/h 4.8 km/h 79 % 0 mm 0 W/m2
20:10 9.8 °C 6.6 °C 1028.7 hPa West 1.6 km/h 14.5 km/h 80 % 0 mm 0 W/m2
20:15 9.8 °C 6.5 °C 1028.3 hPa West 1.6 km/h 14.5 km/h 80 % 0 mm 0 W/m2
20:20 9.8 °C 6.6 °C 1028.3 hPa WNW 3.2 km/h 14.5 km/h 80 % 0 mm 0 W/m2
20:25 9.8 °C 6.5 °C 1028.3 hPa NW 3.2 km/h 14.5 km/h 80 % 0 mm 0 W/m2
20:35 9.7 °C 6.4 °C 1028.3 hPa NW 3.2 km/h 14.5 km/h 80 % 0 mm 0 W/m2
20:40 9.7 °C 6.6 °C 1028.3 hPa WSW 3.2 km/h 14.5 km/h 81 % 0 mm 0 W/m2
20:45 9.7 °C 6.4 °C 1028.3 hPa West 3.2 km/h 14.5 km/h 80 % 0 mm 0 W/m2
20:50 9.7 °C 6.4 °C 1028.7 hPa West 4.8 km/h 4.8 km/h 80 % 0 mm 0 W/m2
21:00 9.8 °C 6.7 °C 1028.7 hPa West 1.6 km/h 1.6 km/h 81 % 0 mm 0 W/m2
21:05 9.7 °C 6.6 °C 1028.7 hPa Calm   14.5 km/h 81 % 0 mm 0 W/m2
21:10 9.6 °C 6.7 °C 1028.7 hPa Calm   14.5 km/h 82 % 0 mm 0 W/m2
21:15 9.4 °C 6.5 °C 1028.7 hPa NNW 1.6 km/h 14.5 km/h 82 % 0 mm 0 W/m2
21:20 9.3 °C 6.6 °C 1028.7 hPa NE 1.6 km/h 1.6 km/h 83 % 0 mm 0 W/m2
21:25 9.3 °C 6.6 °C 1028.7 hPa NE 1.6 km/h 14.5 km/h 83 % 0 mm 0 W/m2
21:30 9.3 °C 6.8 °C 1028.7 hPa WNW 3.2 km/h 14.5 km/h 84 % 0 mm 0 W/m2
21:40 9.4 °C 6.9 °C 1028.7 hPa WNW 4.8 km/h 4.8 km/h 84 % 0 mm 0 W/m2
21:45 9.5 °C 6.9 °C 1028.7 hPa WNW 3.2 km/h 14.5 km/h 84 % 0 mm 0 W/m2
21:50 9.5 °C 6.9 °C 1028.7 hPa WSW 3.2 km/h 14.5 km/h 84 % 0 mm 0 W/m2
21:55 9.6 °C 7 °C 1028.7 hPa West 3.2 km/h 14.5 km/h 84 % 0 mm 0 W/m2
22:00 9.5 °C 6.9 °C 1028.7 hPa West 1.6 km/h 1.6 km/h 84 % 0 mm 0 W/m2
22:05 9.5 °C 6.9 °C 1028.7 hPa SW 1.6 km/h 14.5 km/h 84 % 0 mm 0 W/m2
22:10 9.4 °C 6.8 °C 1028.7 hPa West 3.2 km/h 3.2 km/h 84 % 0 mm 0 W/m2
22:15 9.4 °C 6.8 °C 1028.7 hPa WSW 3.2 km/h 14.5 km/h 84 % 0 mm 0 W/m2
22:25 9.3 °C 6.7 °C 1028.7 hPa WNW 4.8 km/h 14.5 km/h 84 % 0 mm 0 W/m2
22:30 9.2 °C 6.8 °C 1028.7 hPa NW 6.4 km/h 14.5 km/h 85 % 0 mm 0 W/m2
22:35 9.3 °C 6.9 °C 1028.7 hPa WNW 9.7 km/h 14.5 km/h 85 % 0 mm 0 W/m2
22:40 9.3 °C 6.9 °C 1028.7 hPa WNW 9.7 km/h 14.5 km/h 85 % 0 mm 0 W/m2
22:50 9.4 °C 7 °C 1028.7 hPa WNW 11.3 km/h 14.5 km/h 85 % 0 mm 0 W/m2
22:55 9.4 °C 7.1 °C 1028.7 hPa WSW 12.9 km/h 14.5 km/h 85 % 0 mm 0 W/m2
23:00 9.4 °C 7.1 °C 1028.7 hPa West 14.5 km/h 16.1 km/h 85 % 0 mm 0 W/m2
23:05 9.4 °C 7.1 °C 1028.7 hPa WNW 12.9 km/h 16.1 km/h 85 % 0 mm 0 W/m2
23:10 9.4 °C 7.1 °C 1028.7 hPa WNW 11.3 km/h 11.3 km/h 85 % 0 mm 0 W/m2
23:20 9.3 °C 6.9 °C 1028.7 hPa WNW 11.3 km/h 14.5 km/h 85 % 0 mm 0 W/m2
23:25 9.3 °C 6.9 °C 1028.7 hPa WNW 12.9 km/h 14.5 km/h 85 % 0 mm 0 W/m2
23:30 9.3 °C 6.9 °C 1028.7 hPa West 12.9 km/h 14.5 km/h 85 % 0 mm 0 W/m2
23:35 9.3 °C 6.9 °C 1028.7 hPa WNW 12.9 km/h 14.5 km/h 85 % 0 mm 0 W/m2
23:40 9.4 °C 7 °C 1028.7 hPa West 12.9 km/h 20.9 km/h 85 % 0 mm 0 W/m2
23:45 9.3 °C 6.8 °C 1028.7 hPa WNW 12.9 km/h 20.9 km/h 84 % 0 mm 0 W/m2
23:55 9.2 °C 6.8 °C 1028.7 hPa WNW 9.7 km/h 14.5 km/h 85 % 0 mm 0 W/m2
Delerius-Weather
Compliments of Weather Underground - 2 mb

Data updates at regular intervals.